Time;durP1;ratioP1;P1;durP2;ratioP2;P2;SDS_P1;SDS_P2;PMS_P1;PMS_P2;Temp;Humidity;BMP_temperature;BMP_pressure;BME280_temperature;BME280_humidity;BME280_pressure;Samples;Min_cycle;Max_cycle;Signal;HPM_P1;HPM_P2
2023/10/31 00:01:49;;;;;;;;;;;;;;;12.64;100.00;99466.78;5094880;27;19920;-73
2023/10/31 00:04:14;;;;;;;;;;;;;;;12.41;100.00;99461.78;5075958;27;20053;-73
2023/10/31 00:06:40;;;;;;;;;;;;;;;12.14;100.00;99464.31;5084405;27;19924;-73
2023/10/31 00:09:05;;;;;;;;;;;;;;;11.87;100.00;99465.03;5076755;27;20012;-73
2023/10/31 00:11:31;;;;;;;;;;;;;;;11.62;100.00;99466.38;5085368;27;19924;-73
2023/10/31 00:13:56;;;;;;;;;;;;;;;11.43;100.00;99472.50;5094352;27;20014;-73
2023/10/31 00:16:21;;;;;;;;;;;;;;;11.35;100.00;99470.53;5093772;27;19920;-73
2023/10/31 00:18:52;;;;;;;;;;;;;;;11.33;100.00;99488.47;5075943;27;20432;-73
2023/10/31 00:21:18;;;;;;;;;;;;;;;11.23;100.00;99495.59;5108930;27;19923;-73
2023/10/31 00:23:44;;;;;;;;;;;;;;;11.11;100.00;99513.53;5102010;27;19966;-73
2023/10/31 00:26:10;;;;;;;;;;;;;;;11.17;100.00;99505.97;5063562;27;19919;-73
2023/10/31 00:28:35;;;;;;;;;;;;;;;11.05;100.00;99518.56;5074652;27;20546;-75
2023/10/31 00:31:01;;;;;;;;;;;;;;;10.89;100.00;99532.38;5079985;27;19924;-75
2023/10/31 00:33:27;;;;;;;;;;;;;;;10.76;100.00;99534.41;5072732;27;20448;-76
2023/10/31 00:35:55;;;;;;;;;;;;;;;10.69;100.00;99535.88;5073328;27;20432;-75
2023/10/31 00:38:21;;;;;;;;;;;;;;;10.76;100.00;99540.59;5109313;27;20082;-75
2023/10/31 00:40:46;;;;;;;;;;;;;;;10.85;100.00;99544.28;5082616;27;20389;-73
2023/10/31 00:43:12;;;;;;;;;;;;;;;10.85;100.00;99557.63;5096669;27;20553;-73
2023/10/31 00:45:37;;;;;;;;;;;;;;;10.77;100.00;99546.75;5090921;27;19920;-73
2023/10/31 00:48:03;;;;;;;;;;;;;;;10.76;100.00;99547.75;5087448;27;19999;-73
2023/10/31 00:50:31;;;;;;;;;;;;;;;10.80;100.00;99557.16;5094369;27;20756;-73
2023/10/31 00:52:56;;;;;;;;;;;;;;;10.82;100.00;99566.72;5105928;27;20052;-73
2023/10/31 00:55:25;;;;;;;;;;;;;;;10.84;100.00;99571.91;5096624;27;19930;-73
2023/10/31 00:57:50;;;;;;;;;;;;;;;10.92;100.00;99571.28;5091376;27;20005;-73
2023/10/31 01:00:16;;;;;;;;;;;;;;;10.94;100.00;99575.50;5111952;27;19989;-74
2023/10/31 01:02:41;;;;;;;;;;;;;;;10.93;100.00;99573.81;5093476;27;19928;-73
2023/10/31 01:05:07;;;;;;;;;;;;;;;11.01;100.00;99575.84;5091391;27;20792;-73
2023/10/31 01:07:32;;;;;;;;;;;;;;;11.00;100.00;99582.16;5093982;27;20388;-75
2023/10/31 01:09:58;;;;;;;;;;;;;;;10.96;100.00;99584.22;5076658;27;20019;-74
2023/10/31 01:12:23;;;;;;;;;;;;;;;10.96;100.00;99589.56;5096331;27;20231;-73
2023/10/31 01:14:48;;;;;;;;;;;;;;;10.93;100.00;99603.13;5090271;27;20565;-74
2023/10/31 01:17:14;;;;;;;;;;;;;;;10.85;100.00;99603.81;5096994;27;19920;-73
2023/10/31 01:19:45;;;;;;;;;;;;;;;10.82;100.00;99605.88;5091786;27;20089;-73
2023/10/31 01:22:10;;;;;;;;;;;;;;;10.89;100.00;99615.91;5086041;27;19928;-73
2023/10/31 01:24:35;;;;;;;;;;;;;;;10.84;100.00;99619.91;5094815;27;19920;-73
2023/10/31 01:27:01;;;;;;;;;;;;;;;10.89;100.00;99623.91;5093454;27;20738;-73
2023/10/31 01:29:26;;;;;;;;;;;;;;;10.83;100.00;99629.75;5083942;28;20475;-73
2023/10/31 01:31:51;;;;;;;;;;;;;;;10.89;100.00;99631.91;5083775;28;19965;-74
2023/10/31 01:34:17;;;;;;;;;;;;;;;10.82;100.00;99648.53;5089413;27;20805;-73
2023/10/31 01:36:42;;;;;;;;;;;;;;;10.83;100.00;99637.75;5090206;27;20027;-74
2023/10/31 01:39:11;;;;;;;;;;;;;;;10.82;100.00;99636.06;5098918;27;19924;-73
2023/10/31 01:41:36;;;;;;;;;;;;;;;10.79;100.00;99641.66;5091936;27;20024;-73
2023/10/31 01:44:05;;;;;;;;;;;;;;;10.88;100.00;99642.69;5094378;27;19924;-73
2023/10/31 01:46:30;;;;;;;;;;;;;;;10.92;100.00;99649.47;5083375;27;19924;-74
2023/10/31 01:48:55;;;;;;;;;;;;;;;10.93;100.00;99650.31;5097562;27;20626;-73
2023/10/31 01:51:26;;;;;;;;;;;;;;;10.95;100.00;99657.22;5093189;27;19951;-73
2023/10/31 01:53:52;;;;;;;;;;;;;;;10.89;100.00;99655.91;5102675;27;20041;-74
2023/10/31 01:56:18;;;;;;;;;;;;;;;10.87;100.00;99657.00;5097928;27;19924;-73
2023/10/31 01:58:44;;;;;;;;;;;;;;;10.82;100.00;99660.06;5106832;27;20038;-73
2023/10/31 02:01:10;;;;;;;;;;;;;;;10.97;100.00;99665.09;5092703;27;19967;-74
2023/10/31 02:03:35;;;;;;;;;;;;;;;10.93;100.00;99671.66;5083112;27;20021;-73
2023/10/31 02:06:01;;;;;;;;;;;;;;;10.86;100.00;99658.81;5098509;27;19920;-73
2023/10/31 02:08:26;;;;;;;;;;;;;;;10.91;100.00;99669.13;5095093;27;20294;-73
2023/10/31 02:10:52;;;;;;;;;;;;;;;10.88;100.00;99666.69;5087579;27;19924;-73
2023/10/31 02:13:18;;;;;;;;;;;;;;;10.95;100.00;99665.22;5080582;27;19926;-73
2023/10/31 02:15:44;;;;;;;;;;;;;;;10.89;100.00;99668.38;5100167;27;19923;-73
2023/10/31 02:18:09;;;;;;;;;;;;;;;10.94;100.00;99668.84;5103845;27;19920;-74
2023/10/31 02:20:35;;;;;;;;;;;;;;;10.85;100.00;99674.97;5096268;27;19924;-74
2023/10/31 02:23:01;;;;;;;;;;;;;;;10.97;100.00;99681.94;5081781;27;19919;-73
2023/10/31 02:25:29;;;;;;;;;;;;;;;10.92;100.00;99684.13;5089049;27;19930;-74
2023/10/31 02:27:56;;;;;;;;;;;;;;;10.99;100.00;99687.13;5100914;27;19920;-74
2023/10/31 02:30:32;;;;;;;;;;;;;;;10.99;100.00;99679.13;5081595;27;19924;-74
2023/10/31 02:33:00;;;;;;;;;;;;;;;11.00;100.00;99683.50;5099183;27;19990;-74
2023/10/31 02:35:25;;;;;;;;;;;;;;;11.05;100.00;99684.81;5098059;27;20765;-74
2023/10/31 02:37:53;;;;;;;;;;;;;;;11.04;100.00;99675.09;5077514;27;19920;-74
2023/10/31 02:40:19;;;;;;;;;;;;;;;11.06;100.00;99678.50;5096767;27;20512;-74
2023/10/31 02:42:44;;;;;;;;;;;;;;;11.04;100.00;99672.44;5095245;27;20786;-74
2023/10/31 02:45:10;;;;;;;;;;;;;;;11.01;100.00;99671.84;5087550;27;19927;-74
2023/10/31 02:47:35;;;;;;;;;;;;;;;11.09;100.00;99672.03;5077023;27;20373;-74
2023/10/31 02:50:01;;;;;;;;;;;;;;;11.00;100.00;99672.84;5077863;27;20038;-74
2023/10/31 02:52:28;;;;;;;;;;;;;;;10.94;100.00;99670.66;5079746;27;19975;-74
2023/10/31 02:54:53;;;;;;;;;;;;;;;11.04;100.00;99682.25;5081439;27;19930;-74
2023/10/31 02:57:19;;;;;;;;;;;;;;;11.03;100.00;99680.56;5074361;27;19920;-74
2023/10/31 02:59:44;;;;;;;;;;;;;;;10.97;100.00;99678.41;5093270;27;19931;-74
2023/10/31 03:02:11;;;;;;;;;;;;;;;10.97;100.00;99679.25;5100503;27;19920;-74
2023/10/31 03:04:36;;;;;;;;;;;;;;;10.99;100.00;99687.13;5098345;27;19982;-74
2023/10/31 03:07:03;;;;;;;;;;;;;;;10.94;100.00;99682.19;5103550;27;20407;-74
2023/10/31 03:09:28;;;;;;;;;;;;;;;10.90;100.00;99686.09;5100921;27;19924;-74
2023/10/31 03:11:54;;;;;;;;;;;;;;;10.97;100.00;99689.09;5089259;27;19923;-73
2023/10/31 03:14:19;;;;;;;;;;;;;;;10.99;100.00;99682.63;5085719;27;19925;-74
2023/10/31 03:16:44;;;;;;;;;;;;;;;11.00;100.00;99688.84;5085867;27;19993;-74
2023/10/31 03:19:10;;;;;;;;;;;;;;;10.96;100.00;99679.41;5104092;27;19924;-73
2023/10/31 03:21:36;;;;;;;;;;;;;;;10.99;100.00;99685.31;5078116;27;19931;-74
2023/10/31 03:24:04;;;;;;;;;;;;;;;11.06;100.00;99678.50;5087371;27;20175;-74
2023/10/31 03:26:33;;;;;;;;;;;;;;;11.02;100.00;99682.38;5084368;27;19920;-73
2023/10/31 03:28:58;;;;;;;;;;;;;;;11.06;100.00;99688.31;5093866;27;19942;-73
2023/10/31 03:31:24;;;;;;;;;;;;;;;11.06;100.00;99691.00;5097465;27;20361;-74
2023/10/31 03:33:49;;;;;;;;;;;;;;;11.02;100.00;99702.88;5095341;27;20420;-73
2023/10/31 03:36:15;;;;;;;;;;;;;;;10.99;100.00;99700.47;5094180;27;20389;-73
2023/10/31 03:38:41;;;;;;;;;;;;;;;10.98;100.00;99704.97;5075128;27;19928;-73
2023/10/31 03:41:07;;;;;;;;;;;;;;;10.86;100.00;99714.00;5097786;27;19959;-73
2023/10/31 03:43:32;;;;;;;;;;;;;;;10.90;100.00;99723.44;5076915;27;19920;-73
2023/10/31 03:45:58;;;;;;;;;;;;;;;10.89;100.00;99719.94;5094137;27;19927;-73
2023/10/31 03:48:23;;;;;;;;;;;;;;;10.87;100.00;99721.00;5098347;27;19928;-73
2023/10/31 03:50:50;;;;;;;;;;;;;;;10.91;100.00;99724.28;5099840;27;19950;-73
2023/10/31 03:53:15;;;;;;;;;;;;;;;10.91;100.00;99732.28;5079679;27;20758;-73
2023/10/31 03:55:41;;;;;;;;;;;;;;;10.93;100.00;99728.50;5098305;27;19920;-73
2023/10/31 03:58:06;;;;;;;;;;;;;;;10.85;100.00;99731.81;5079654;27;19946;-73
2023/10/31 04:00:31;;;;;;;;;;;;;;;10.75;100.00;99735.38;5082105;27;19942;-73
2023/10/31 04:02:57;;;;;;;;;;;;;;;10.83;100.00;99739.06;5076680;27;25217;-73
2023/10/31 04:05:25;;;;;;;;;;;;;;;10.74;100.00;99739.81;5100727;27;20714;-73
2023/10/31 04:07:50;;;;;;;;;;;;;;;10.83;100.00;99747.06;5073960;27;19928;-73
2023/10/31 04:10:18;;;;;;;;;;;;;;;10.80;100.00;99746.50;5092792;27;19924;-73
2023/10/31 04:12:43;;;;;;;;;;;;;;;10.83;100.00;99744.41;5081859;27;19924;-73
2023/10/31 04:15:09;;;;;;;;;;;;;;;10.82;100.00;99755.22;5094697;27;19920;-73
2023/10/31 04:17:37;;;;;;;;;;;;;;;10.73;100.00;99748.81;5100300;27;19924;-73
2023/10/31 04:20:06;;;;;;;;;;;;;;;10.79;100.00;99758.13;5100954;27;20409;-74
2023/10/31 04:22:31;;;;;;;;;;;;;;;10.80;100.00;99763.34;5094151;27;19970;-74
2023/10/31 04:24:56;;;;;;;;;;;;;;;10.87;100.00;99774.34;5095861;27;19927;-74
2023/10/31 04:27:22;;;;;;;;;;;;;;;10.81;100.00;99770.38;5084068;27;19928;-74
2023/10/31 04:29:48;;;;;;;;;;;;;;;10.87;100.00;99772.53;5103685;27;19923;-74
2023/10/31 04:32:13;;;;;;;;;;;;;;;10.77;100.00;99782.25;5100493;27;20801;-74
2023/10/31 04:34:39;;;;;;;;;;;;;;;10.80;100.00;99765.16;5093828;27;19942;-74
2023/10/31 04:37:07;;;;;;;;;;;;;;;10.85;100.00;99773.63;5097921;27;20448;-73
2023/10/31 04:39:32;;;;;;;;;;;;;;;10.88;100.00;99781.38;5098511;27;19924;-74
2023/10/31 04:41:58;;;;;;;;;;;;;;;10.86;100.00;99786.84;5082893;27;20032;-74
2023/10/31 04:44:23;;;;;;;;;;;;;;;10.85;100.00;99779.81;5078512;27;19920;-74
2023/10/31 04:46:48;;;;;;;;;;;;;;;10.86;100.00;99791.34;5095429;27;19974;-74
2023/10/31 04:49:15;;;;;;;;;;;;;;;10.88;100.00;99798.22;5104157;27;19924;-74
2023/10/31 04:51:41;;;;;;;;;;;;;;;10.78;100.00;99815.09;5093381;27;19947;-74
2023/10/31 04:54:07;;;;;;;;;;;;;;;10.79;100.00;99811.44;5093496;27;19947;-73
2023/10/31 04:56:38;;;;;;;;;;;;;;;10.82;100.00;99822.72;5093474;27;19924;-74
2023/10/31 04:59:04;;;;;;;;;;;;;;;10.77;100.00;99824.06;5092378;27;19928;-74
2023/10/31 05:01:29;;;;;;;;;;;;;;;10.75;100.00;99831.34;5108969;27;19979;-73
2023/10/31 05:03:54;;;;;;;;;;;;;;;10.79;100.00;99844.31;5097983;27;19928;-73
2023/10/31 05:06:20;;;;;;;;;;;;;;;10.65;100.00;99836.59;5099246;27;19932;-73
2023/10/31 05:08:46;;;;;;;;;;;;;;;10.75;100.00;99844.69;5092703;27;19924;-73
2023/10/31 05:11:11;;;;;;;;;;;;;;;10.74;100.00;99840.31;5095681;27;19930;-73
2023/10/31 05:13:38;;;;;;;;;;;;;;;10.76;100.00;99841.03;5093283;27;20046;-73
2023/10/31 05:16:05;;;;;;;;;;;;;;;10.72;100.00;99837.78;5101361;27;31676;-73
2023/10/31 05:18:31;;;;;;;;;;;;;;;10.79;100.00;99840.78;5093434;27;19950;-73
2023/10/31 05:20:56;;;;;;;;;;;;;;;10.80;100.00;99848.69;5094526;27;19926;-73
2023/10/31 05:23:21;;;;;;;;;;;;;;;10.85;100.00;99842.97;5103739;27;19920;-74
2023/10/31 05:25:47;;;;;;;;;;;;;;;10.82;100.00;99854.72;5094145;27;19931;-73
2023/10/31 05:28:12;;;;;;;;;;;;;;;10.75;100.00;99863.34;5101451;27;20074;-73
2023/10/31 05:30:37;;;;;;;;;;;;;;;10.81;100.00;99857.53;5110849;27;19924;-73
2023/10/31 05:33:03;;;;;;;;;;;;;;;10.82;100.00;99862.72;5096986;27;20797;-73
2023/10/31 05:35:28;;;;;;;;;;;;;;;10.84;100.00;99868.81;5073355;27;20019;-73
2023/10/31 05:37:53;;;;;;;;;;;;;;;10.78;100.00;99868.44;5094867;27;19920;-73
2023/10/31 05:40:22;;;;;;;;;;;;;;;10.82;100.00;99869.88;5102700;27;19924;-73
2023/10/31 05:42:47;;;;;;;;;;;;;;;10.83;100.00;99875.09;5105057;27;19924;-73
2023/10/31 05:45:13;;;;;;;;;;;;;;;10.75;100.00;99879.34;5093036;27;19923;-74
2023/10/31 05:47:38;;;;;;;;;;;;;;;10.74;100.00;99877.63;5098967;27;19924;-73
2023/10/31 05:50:07;;;;;;;;;;;;;;;10.74;100.00;99869.63;5096226;27;19920;-73
2023/10/31 05:52:32;;;;;;;;;;;;;;;10.74;100.00;99888.31;5095669;27;20523;-73
2023/10/31 05:54:58;;;;;;;;;;;;;;;10.75;100.00;99882.03;5075422;27;19930;-74
2023/10/31 05:57:23;;;;;;;;;;;;;;;10.74;100.00;99897.16;5074505;27;19930;-72
2023/10/31 05:59:48;;;;;;;;;;;;;;;10.69;100.00;99893.16;5092219;27;19934;-73
2023/10/31 06:02:14;;;;;;;;;;;;;;;10.71;100.00;99889.41;5099387;27;20798;-73
2023/10/31 06:04:39;;;;;;;;;;;;;;;10.50;100.00;99897.28;5093157;27;19928;-73
2023/10/31 06:07:05;;;;;;;;;;;;;;;10.51;100.00;99900.78;5078098;27;19923;-74
2023/10/31 06:09:32;;;;;;;;;;;;;;;10.53;100.00;99907.69;5095255;27;20634;-73
2023/10/31 06:12:01;;;;;;;;;;;;;;;10.52;100.00;99903.34;5091161;27;19933;-74
2023/10/31 06:14:26;;;;;;;;;;;;;;;10.48;100.00;99903.69;5083662;27;20073;-74
2023/10/31 06:16:52;;;;;;;;;;;;;;;10.53;100.00;99909.50;5098755;27;20465;-73
2023/10/31 06:19:17;;;;;;;;;;;;;;;10.40;100.00;99917.63;5097265;27;19928;-73
2023/10/31 06:21:49;;;;;;;;;;;;;;;10.49;100.00;99924.91;5094850;27;20028;-74
2023/10/31 06:24:14;;;;;;;;;;;;;;;10.46;100.00;99929.63;5076829;27;19928;-74
2023/10/31 06:26:39;;;;;;;;;;;;;;;10.40;100.00;99936.28;5092646;27;19931;-74
2023/10/31 06:29:05;;;;;;;;;;;;;;;10.37;100.00;99942.69;5074452;27;19979;-74
2023/10/31 06:31:30;;;;;;;;;;;;;;;10.37;100.00;99945.34;5108425;27;19924;-74
2023/10/31 06:33:56;;;;;;;;;;;;;;;10.44;100.00;99944.88;5093296;27;19930;-75
2023/10/31 06:36:21;;;;;;;;;;;;;;;10.36;100.00;99942.81;5091552;27;19924;-74
2023/10/31 06:38:47;;;;;;;;;;;;;;;10.32;100.00;99947.50;5090566;27;19920;-75
2023/10/31 06:41:12;;;;;;;;;;;;;;;10.43;100.00;99945.84;5097964;27;20101;-75
2023/10/31 06:43:38;;;;;;;;;;;;;;;10.48;100.00;99944.50;5092480;27;19959;-75
2023/10/31 06:46:05;;;;;;;;;;;;;;;10.39;100.00;99950.53;5097705;27;19919;-75
2023/10/31 06:48:31;;;;;;;;;;;;;;;10.46;100.00;99949.13;5115277;27;20028;-75
2023/10/31 06:50:56;;;;;;;;;;;;;;;10.51;100.00;99951.44;5094807;27;20009;-74
2023/10/31 06:53:24;;;;;;;;;;;;;;;10.49;100.00;99956.03;5097628;27;20319;-75
2023/10/31 06:55:50;;;;;;;;;;;;;;;10.61;100.00;99953.28;5084267;27;19920;-75
2023/10/31 06:58:15;;;;;;;;;;;;;;;10.68;100.00;99952.78;5085114;27;20391;-75
2023/10/31 07:00:40;;;;;;;;;;;;;;;10.65;100.00;99950.38;5083006;27;19981;-75
2023/10/31 07:03:09;;;;;;;;;;;;;;;10.60;100.00;99948.91;5098677;27;20026;-75
2023/10/31 07:05:40;;;;;;;;;;;;;;;10.66;100.00;99955.56;5092475;27;19930;-75
2023/10/31 07:08:15;;;;;;;;;;;;;;;10.72;100.00;99957.75;5089153;27;19924;-75
2023/10/31 07:10:40;;;;;;;;;;;;;;;10.81;100.00;99961.53;5071862;27;19920;-75
2023/10/31 07:13:06;;;;;;;;;;;;;;;10.93;100.00;99962.38;5076354;27;19935;-75
2023/10/31 07:15:31;;;;;;;;;;;;;;;10.94;100.00;99958.72;5110552;27;19920;-75
2023/10/31 07:17:57;;;;;;;;;;;;;;;10.88;100.00;99960.06;5096682;27;19928;-75
2023/10/31 07:20:22;;;;;;;;;;;;;;;10.81;100.00;99959.72;5074292;27;19973;-75
2023/10/31 07:22:48;;;;;;;;;;;;;;;10.94;100.00;99961.41;5098631;27;19928;-75
2023/10/31 07:25:13;;;;;;;;;;;;;;;11.05;100.00;99958.75;5092251;27;21653;-75
2023/10/31 07:27:39;;;;;;;;;;;;;;;10.94;100.00;99961.41;5101394;27;20340;-75
2023/10/31 07:30:06;;;;;;;;;;;;;;;10.95;100.00;99963.97;5096592;27;19920;-75
2023/10/31 07:32:32;;;;;;;;;;;;;;;10.98;100.00;99965.53;5111665;27;19963;-75
2023/10/31 07:34:58;;;;;;;;;;;;;;;11.01;100.00;99971.47;5105907;27;19919;-75
2023/10/31 07:37:23;;;;;;;;;;;;;;;11.08;100.00;99971.81;5073946;27;19920;-74
2023/10/31 07:39:50;;;;;;;;;;;;;;;10.95;100.00;99963.13;5092191;27;20396;-74
2023/10/31 07:42:16;;;;;;;;;;;;;;;11.06;100.00;99968.44;5107866;27;19924;-74
2023/10/31 07:44:41;;;;;;;;;;;;;;;11.07;100.00;99968.31;5082591;27;19959;-74
2023/10/31 07:47:10;;;;;;;;;;;;;;;11.08;100.00;99963.81;5112688;27;20278;-74
2023/10/31 07:49:38;;;;;;;;;;;;;;;11.13;100.00;99975.81;5094384;27;19957;-74
2023/10/31 07:52:08;;;;;;;;;;;;;;;11.12;100.00;99974.13;5090692;27;19928;-74
2023/10/31 07:54:33;;;;;;;;;;;;;;;11.12;100.00;99974.13;5075343;27;19950;-75
2023/10/31 07:56:59;;;;;;;;;;;;;;;11.13;100.00;99980.31;5091067;27;20006;-75
2023/10/31 07:59:24;;;;;;;;;;;;;;;11.09;100.00;99978.84;5089382;27;20015;-75
2023/10/31 08:01:52;;;;;;;;;;;;;;;11.13;100.00;99981.16;5098692;27;19942;-74
2023/10/31 08:04:17;;;;;;;;;;;;;;;11.14;100.00;99984.69;5094150;27;19955;-74
2023/10/31 08:06:45;;;;;;;;;;;;;;;11.16;100.00;99988.09;5089963;27;19931;-74
2023/10/31 08:09:11;;;;;;;;;;;;;;;11.07;100.00;99981.66;5091604;27;19920;-74
2023/10/31 08:11:37;;;;;;;;;;;;;;;11.16;100.00;99990.75;5089263;27;19935;-74
2023/10/31 08:14:08;;;;;;;;;;;;;;;11.12;100.00;99992.81;5091091;27;20522;-74
2023/10/31 08:16:34;;;;;;;;;;;;;;;11.30;100.00;99995.00;5090586;27;19920;-74
2023/10/31 08:18:59;;;;;;;;;;;;;;;11.44;100.00;99994.72;5095928;27;19926;-75
2023/10/31 08:21:28;;;;;;;;;;;;;;;11.39;100.00;99987.06;5097723;27;20408;-74
2023/10/31 08:23:53;;;;;;;;;;;;;;;11.65;100.00;99994.81;5101332;27;20298;-74
2023/10/31 08:26:19;;;;;;;;;;;;;;;11.73;100.00;99992.34;5067087;27;19919;-74
2023/10/31 08:28:44;;;;;;;;;;;;;;;11.92;100.00;99989.06;5096842;27;19930;-74
2023/10/31 08:31:09;;;;;;;;;;;;;;;11.96;100.00;99987.00;5080869;27;19924;-74
2023/10/31 08:33:35;;;;;;;;;;;;;;;11.99;100.00;99986.72;5072384;27;19935;-74
2023/10/31 08:36:01;;;;;;;;;;;;;;;12.08;100.00;99980.63;5091453;27;20447;-74
2023/10/31 08:38:28;;;;;;;;;;;;;;;12.14;100.00;99972.06;5075979;27;19924;-75
2023/10/31 08:40:53;;;;;;;;;;;;;;;12.14;100.00;99980.94;5108965;27;19970;-74
2023/10/31 08:43:21;;;;;;;;;;;;;;;12.24;100.00;99980.19;5096703;27;20050;-75
2023/10/31 08:45:55;;;;;;;;;;;;;;;12.29;100.00;99981.47;5091410;27;19924;-75
2023/10/31 08:48:26;;;;;;;;;;;;;;;12.27;100.00;99978.09;5100420;27;19924;-75
2023/10/31 08:50:51;;;;;;;;;;;;;;;12.12;100.00;99982.06;5077096;27;20009;-75
2023/10/31 08:53:20;;;;;;;;;;;;;;;12.05;100.00;99986.19;5072505;27;20599;-75
2023/10/31 08:55:45;;;;;;;;;;;;;;;12.14;100.00;99988.97;5092457;27;19920;-75
2023/10/31 08:58:13;;;;;;;;;;;;;;;12.19;100.00;99991.25;5111724;27;19967;-74
2023/10/31 09:00:40;;;;;;;;;;;;;;;12.29;100.00;99991.31;5096081;27;19928;-75
2023/10/31 09:03:06;;;;;;;;;;;;;;;12.32;100.00;99993.75;5110221;27;20039;-75
2023/10/31 09:05:40;;;;;;;;;;;;;;;12.44;100.00;99998.91;5095041;27;19942;-75
2023/10/31 09:08:06;;;;;;;;;;;;;;;12.64;100.00;99996.34;5091525;27;19924;-75
2023/10/31 09:10:38;;;;;;;;;;;;;;;12.60;100.00;100006.50;5072459;27;19970;-74
2023/10/31 09:13:03;;;;;;;;;;;;;;;12.65;100.00;100006.94;5091929;27;20053;-74
2023/10/31 09:15:29;;;;;;;;;;;;;;;12.53;100.00;100009.81;5096795;27;19920;-75
2023/10/31 09:17:54;;;;;;;;;;;;;;;12.28;100.00;100011.88;5079651;27;20337;-74
2023/10/31 09:20:20;;;;;;;;;;;;;;;12.25;100.00;100025.50;5085220;27;19932;-75
2023/10/31 09:22:45;;;;;;;;;;;;;;;12.18;100.00;100019.81;5094791;27;20622;-75
2023/10/31 09:25:10;;;;;;;;;;;;;;;12.31;100.00;100027.66;5092383;27;19919;-74
2023/10/31 09:27:37;;;;;;;;;;;;;;;12.47;100.00;100040.59;5094821;27;19973;-74
2023/10/31 09:30:08;;;;;;;;;;;;;;;12.58;100.00;100040.53;5094365;27;19924;-75
2023/10/31 09:32:34;;;;;;;;;;;;;;;12.69;100.00;100037.78;5096125;27;19943;-74
2023/10/31 09:34:59;;;;;;;;;;;;;;;12.58;100.00;100042.34;5109331;27;19924;-75
2023/10/31 09:37:24;;;;;;;;;;;;;;;12.64;100.00;100036.47;5091452;27;19954;-74
2023/10/31 09:39:50;;;;;;;;;;;;;;;12.68;100.00;100036.09;5091671;27;20704;-74
2023/10/31 09:42:15;;;;;;;;;;;;;;;12.76;100.00;100042.63;5093615;27;19991;-74
2023/10/31 09:44:40;;;;;;;;;;;;;;;12.93;100.00;100037.50;5091379;27;19920;-75
2023/10/31 09:47:06;;;;;;;;;;;;;;;13.10;100.00;100036.06;5094420;27;19920;-74
2023/10/31 09:49:34;;;;;;;;;;;;;;;13.40;100.00;100042.41;5096784;27;20386;-74
2023/10/31 09:52:00;;;;;;;;;;;;;;;13.47;100.00;100036.41;5092283;27;20059;-75
2023/10/31 09:54:25;;;;;;;;;;;;;;;13.55;100.00;100042.88;5097015;27;20404;-75
2023/10/31 09:56:51;;;;;;;;;;;;;;;13.48;100.00;100047.94;5089021;27;19951;-74
2023/10/31 09:59:16;;;;;;;;;;;;;;;13.54;100.00;100055.44;5085723;27;19928;-74
2023/10/31 10:01:42;;;;;;;;;;;;;;;13.41;100.00;100058.38;5083568;27;19939;-75
2023/10/31 10:04:09;;;;;;;;;;;;;;;13.48;100.00;100062.19;5078929;27;19920;-75
2023/10/31 10:06:34;;;;;;;;;;;;;;;13.35;100.00;100066.91;5100841;27;20005;-75
2023/10/31 10:09:00;;;;;;;;;;;;;;;13.19;100.00;100067.38;5079665;27;19977;-74
2023/10/31 10:11:25;;;;;;;;;;;;;;;13.16;100.00;100073.00;5091816;27;19920;-74
2023/10/31 10:13:53;;;;;;;;;;;;;;;13.08;100.00;100075.50;5094451;27;20400;-74
2023/10/31 10:16:29;;;;;;;;;;;;;;;13.03;100.00;100087.56;5079859;27;19998;-74
2023/10/31 10:18:55;;;;;;;;;;;;;;;12.96;100.00;100085.44;5091628;27;19931;-74
2023/10/31 10:21:20;;;;;;;;;;;;;;;13.04;100.00;100087.44;5090299;27;19947;-75
2023/10/31 10:23:47;;;;;;;;;;;;;;;13.06;100.00;100092.69;5093675;27;19931;-74
2023/10/31 10:26:13;;;;;;;;;;;;;;;13.02;100.00;100097.44;5102625;27;20013;-75
2023/10/31 10:28:38;;;;;;;;;;;;;;;12.88;100.00;100100.44;5094908;27;19928;-74
2023/10/31 10:31:06;;;;;;;;;;;;;;;12.92;100.00;100108.06;5083832;27;19972;-74
2023/10/31 10:33:33;;;;;;;;;;;;;;;12.92;100.00;100107.22;5095550;27;19924;-74
2023/10/31 10:35:59;;;;;;;;;;;;;;;13.02;100.00;100112.66;5098554;27;19920;-75
2023/10/31 10:38:25;;;;;;;;;;;;;;;13.12;100.00;100097.50;5096397;27;19967;-74
2023/10/31 10:40:50;;;;;;;;;;;;;;;12.99;100.00;100107.53;5104936;27;20024;-74
2023/10/31 10:43:26;;;;;;;;;;;;;;;12.98;100.00;100108.53;5075912;27;19924;-74
2023/10/31 10:45:56;;;;;;;;;;;;;;;13.10;100.00;100112.81;5079488;27;19926;-74
2023/10/31 10:48:22;;;;;;;;;;;;;;;13.17;100.00;100112.19;5080340;27;19928;-74
2023/10/31 10:50:51;;;;;;;;;;;;;;;13.23;100.00;100108.16;5096539;27;19920;-74
2023/10/31 10:53:21;;;;;;;;;;;;;;;13.24;100.00;100114.34;5094562;27;19986;-74
2023/10/31 10:55:50;;;;;;;;;;;;;;;13.28;100.00;100115.78;5096078;27;19924;-74
2023/10/31 10:58:27;;;;;;;;;;;;;;;13.38;100.00;100116.69;5099201;27;19924;-74
2023/10/31 11:00:54;;;;;;;;;;;;;;;13.52;100.00;100105.63;5095202;27;19927;-74
2023/10/31 11:03:21;;;;;;;;;;;;;;;13.62;100.00;100108.34;5100404;27;19981;-75
2023/10/31 11:05:46;;;;;;;;;;;;;;;13.75;100.00;100098.22;5096387;27;19972;-74
2023/10/31 11:08:16;;;;;;;;;;;;;;;13.77;100.00;100104.31;5094982;27;19997;-75
2023/10/31 11:10:44;;;;;;;;;;;;;;;13.86;100.00;100108.88;5095199;27;19927;-74
2023/10/31 11:13:13;;;;;;;;;;;;;;;13.85;100.00;100108.97;5085433;27;20065;-75
2023/10/31 11:15:39;;;;;;;;;;;;;;;13.72;100.00;100112.75;5095728;27;19920;-75
2023/10/31 11:18:09;;;;;;;;;;;;;;;13.56;100.00;100117.78;5099945;27;20106;-74
2023/10/31 11:20:35;;;;;;;;;;;;;;;13.57;100.00;100111.44;5083047;27;20061;-74
2023/10/31 11:23:04;;;;;;;;;;;;;;;13.53;100.00;100112.69;5086364;27;19947;-75
2023/10/31 11:25:31;;;;;;;;;;;;;;;13.60;100.00;100121.03;5080433;27;19963;-75
2023/10/31 11:27:57;;;;;;;;;;;;;;;13.63;100.00;100120.75;5093404;27;19928;-75
2023/10/31 11:30:30;;;;;;;;;;;;;;;13.92;100.00;100126.22;5075651;27;20825;-74
2023/10/31 11:32:57;;;;;;;;;;;;;;;13.73;100.00;100127.00;5092349;27;19975;-74
2023/10/31 11:35:25;;;;;;;;;;;;;;;13.90;100.00;100137.06;5075367;27;19943;-75
2023/10/31 11:38:08;;;;;;;;;;;;;;;13.88;100.00;100133.69;5094362;27;20925;-74
2023/10/31 11:40:34;;;;;;;;;;;;;;;13.83;100.00;100129.72;5100336;27;19927;-74
2023/10/31 11:43:04;;;;;;;;;;;;;;;13.79;100.00;100139.84;5078726;27;19920;-75
2023/10/31 11:45:33;;;;;;;;;;;;;;;13.66;100.00;100139.25;5101617;27;19920;-74
2023/10/31 11:47:58;;;;;;;;;;;;;;;13.65;100.00;100135.69;5103739;27;20052;-74
2023/10/31 11:50:23;;;;;;;;;;;;;;;13.73;100.00;100145.75;5095460;27;20061;-74
2023/10/31 11:53:05;;;;;;;;;;;;;;;13.99;100.00;100151.50;5077848;27;19924;-75
2023/10/31 11:55:35;;;;;;;;;;;;;;;14.59;100.00;100147.00;5077884;27;19920;-74
2023/10/31 11:58:14;;;;;;;;;;;;;;;14.86;100.00;100146.31;5115102;27;19950;-75
2023/10/31 12:00:39;;;;;;;;;;;;;;;14.86;100.00;100140.06;5095357;27;19931;-75
2023/10/31 12:03:08;;;;;;;;;;;;;;;14.93;100.00;100143.91;5094811;27;19978;-74
2023/10/31 12:05:33;;;;;;;;;;;;;;;14.79;100.00;100142.47;5095976;27;20482;-75
2023/10/31 12:07:59;;;;;;;;;;;;;;;14.41;100.00;100154.03;5074228;27;19928;-75
2023/10/31 12:10:25;;;;;;;;;;;;;;;14.19;100.00;100152.41;5075171;27;20437;-75
2023/10/31 12:12:51;;;;;;;;;;;;;;;14.14;100.00;100160.84;5099015;27;20030;-74
2023/10/31 12:15:16;;;;;;;;;;;;;;;14.18;100.00;100166.81;5098873;27;20401;-75
2023/10/31 12:17:44;;;;;;;;;;;;;;;14.22;100.00;100168.22;5093968;27;20365;-75
2023/10/31 12:20:10;;;;;;;;;;;;;;;14.34;100.00;100166.28;5115084;27;19920;-74
2023/10/31 12:22:36;;;;;;;;;;;;;;;14.24;100.00;100168.94;5074766;27;19920;-74
2023/10/31 12:25:04;;;;;;;;;;;;;;;14.21;100.00;100166.53;5094576;27;19959;-75
2023/10/31 12:27:49;;;;;;;;;;;;;;;14.20;100.00;100173.72;5097464;27;19924;-75
2023/10/31 12:30:18;;;;;;;;;;;;;;;14.45;100.00;100171.50;5093770;27;19930;-75